Time;durP1;ratioP1;P1;durP2;ratioP2;P2;SDS_P1;SDS_P2;PMS_P1;PMS_P2;Temp;Humidity;BMP_temperature;BMP_pressure;BME280_temperature;BME280_humidity;BME280_pressure;Samples;Min_cycle;Max_cycle;Signal;HPM_P1;HPM_P2
2022/10/20 00:01:29;;;;;;;10.17;7.10;;;6.80;99.90;;;;;;5034789;28;20229;-67
2022/10/20 00:03:56;;;;;;;9.17;7.60;;;6.90;99.90;;;;;;5032898;28;20195;-66
2022/10/20 00:06:28;;;;;;;11.13;8.07;;;6.90;99.90;;;;;;5034161;28;20175;-67
2022/10/20 00:08:55;;;;;;;13.37;8.03;;;6.80;99.90;;;;;;5032907;28;20171;-67
2022/10/20 00:11:22;;;;;;;11.67;7.63;;;6.90;99.90;;;;;;5034038;28;20233;-67
2022/10/20 00:13:50;;;;;;;13.43;8.33;;;6.90;99.90;;;;;;5034181;28;20281;-67
2022/10/20 00:16:16;;;;;;;11.97;7.97;;;6.90;99.90;;;;;;5034044;28;20182;-67
2022/10/20 00:18:43;;;;;;;11.03;7.60;;;6.90;99.90;;;;;;5033810;28;20256;-67
2022/10/20 00:21:13;;;;;;;12.80;8.30;;;6.90;99.90;;;;;;5034531;28;20188;-67
2022/10/20 00:23:39;;;;;;;9.77;8.50;;;6.90;99.90;;;;;;5032507;28;20221;-66
2022/10/20 00:26:11;;;;;;;12.10;7.93;;;6.90;99.90;;;;;;5033918;28;20636;-67
2022/10/20 00:28:37;;;;;;;11.97;8.13;;;6.90;99.90;;;;;;5033958;28;20190;-67
2022/10/20 00:31:04;;;;;;;10.40;8.23;;;6.90;99.90;;;;;;5032505;28;20179;-66
2022/10/20 00:33:30;;;;;;;19.83;8.70;;;6.80;99.90;;;;;;5033697;28;20202;-67
2022/10/20 00:36:00;;;;;;;12.17;7.47;;;6.90;99.90;;;;;;5034111;28;20245;-67
2022/10/20 00:38:26;;;;;;;10.23;7.87;;;6.80;99.90;;;;;;5032206;28;20205;-67
2022/10/20 00:40:52;;;;;;;12.83;7.47;;;6.70;99.90;;;;;;5032427;28;20258;-67
2022/10/20 00:43:18;;;;;;;9.87;7.90;;;6.70;99.90;;;;;;5033395;28;20610;-66
2022/10/20 00:45:51;;;;;;;25.47;9.07;;;6.70;99.90;;;;;;5033098;28;20286;-67
2022/10/20 00:48:26;;;;;;;10.97;7.97;;;6.80;99.90;;;;;;5033747;28;20550;-67
2022/10/20 00:50:54;;;;;;;10.83;8.10;;;6.80;99.90;;;;;;5033742;28;20170;-66
2022/10/20 00:53:25;;;;;;;13.47;8.33;;;6.90;99.90;;;;;;5033492;28;20564;-63
2022/10/20 00:55:54;;;;;;;12.10;8.47;;;6.90;99.90;;;;;;5033620;28;20171;-67
2022/10/20 00:58:20;;;;;;;12.80;8.60;;;6.90;99.90;;;;;;5033385;28;20202;-67
2022/10/20 01:00:49;;;;;;;15.30;7.93;;;6.90;99.90;;;;;;5033412;28;20221;-67
2022/10/20 01:03:39;;;;;;;12.67;8.37;;;6.90;99.90;;;;;;5033445;28;20252;-67
2022/10/20 01:06:05;;;;;;;18.50;9.33;;;6.90;99.90;;;;;;5033789;28;20171;-67
2022/10/20 01:08:30;;;;;;;13.77;8.00;;;6.90;99.90;;;;;;5033260;28;20644;-67
2022/10/20 01:11:02;;;;;;;12.87;8.23;;;6.90;99.90;;;;;;5033175;28;20710;-67
2022/10/20 01:13:37;;;;;;;13.07;9.53;;;6.90;99.90;;;;;;5032008;28;20203;-67
2022/10/20 01:16:25;;;;;;;16.37;9.77;;;7.00;99.90;;;;;;5034108;28;20571;-67
2022/10/20 01:18:50;;;;;;;13.87;9.97;;;7.20;99.90;;;;;;5033071;28;20187;-67
2022/10/20 01:21:34;;;;;;;15.63;9.90;;;7.20;99.90;;;;;;5033094;28;20225;-67
2022/10/20 01:24:24;;;;;;;13.97;9.90;;;7.30;99.90;;;;;;5033329;28;20270;-67
2022/10/20 01:27:24;;;;;;;15.23;9.97;;;7.30;99.90;;;;;;5033450;28;20199;-67
2022/10/20 01:30:00;;;;;;;12.40;9.53;;;7.20;99.90;;;;;;5031425;28;20282;-67
2022/10/20 01:32:40;;;;;;;20.43;9.87;;;7.20;99.90;;;;;;5033100;28;20178;-67
2022/10/20 01:35:20;;;;;;;13.83;10.40;;;7.30;99.90;;;;;;5033386;28;20187;-67
2022/10/20 01:37:49;;;;;;;14.80;10.40;;;7.30;99.90;;;;;;5033675;28;20163;-66
2022/10/20 01:40:53;;;;;;;15.17;11.07;;;7.40;99.90;;;;;;5032757;28;20236;-67
2022/10/20 01:43:23;;;;;;;17.23;12.60;;;7.50;99.90;;;;;;5033065;28;20210;-66
2022/10/20 01:45:51;;;;;;;15.73;11.60;;;7.70;99.90;;;;;;5033349;28;20164;-67
2022/10/20 01:48:20;;;;;;;15.03;10.40;;;7.70;99.90;;;;;;5033108;28;20171;-67
2022/10/20 01:50:48;;;;;;;13.50;10.67;;;7.70;99.90;;;;;;5033175;28;20179;-67
2022/10/20 01:53:14;;;;;;;20.57;11.67;;;7.80;99.90;;;;;;5031531;28;20680;-67
2022/10/20 01:55:40;;;;;;;17.57;11.07;;;7.80;99.90;;;;;;5032792;28;20258;-67
2022/10/20 01:58:37;;;;;;;18.77;10.97;;;7.80;99.90;;;;;;5036106;28;20659;-67
2022/10/20 02:01:24;;;;;;;23.47;13.37;;;7.80;99.90;;;;;;5036675;28;20171;-66
2022/10/20 02:03:57;;;;;;;17.93;12.37;;;8.00;99.90;;;;;;5036486;28;20206;-66
2022/10/20 02:06:51;;;;;;;18.57;11.60;;;8.20;99.90;;;;;;5036441;28;20175;-66
2022/10/20 02:09:26;;;;;;;17.30;12.63;;;8.30;99.90;;;;;;5034964;28;20548;-66
2022/10/20 02:11:51;;;;;;;17.83;12.40;;;8.30;99.90;;;;;;5036402;28;20167;-67
2022/10/20 02:14:20;;;;;;;19.07;11.17;;;8.30;99.90;;;;;;5036215;28;20203;-66
2022/10/20 02:16:54;;;;;;;15.80;11.13;;;8.20;99.90;;;;;;5036231;28;20183;-67
2022/10/20 02:19:23;;;;;;;14.93;10.97;;;8.10;99.90;;;;;;5036026;28;20226;-67
2022/10/20 02:21:51;;;;;;;14.60;10.67;;;8.10;99.90;;;;;;5036214;28;20203;-67
2022/10/20 02:24:19;;;;;;;16.73;10.90;;;8.00;99.90;;;;;;5035812;28;20264;-67
2022/10/20 02:26:45;;;;;;;15.83;11.17;;;8.00;99.90;;;;;;5034773;28;20183;-67
2022/10/20 02:29:17;;;;;;;16.67;11.90;;;8.00;99.90;;;;;;5035926;28;20202;-67
2022/10/20 02:31:43;;;;;;;14.57;10.83;;;8.00;99.90;;;;;;5036235;28;20596;-67
2022/10/20 02:34:11;;;;;;;15.87;11.37;;;7.90;99.90;;;;;;5036029;28;20202;-67
2022/10/20 02:36:41;;;;;;;16.67;11.00;;;7.90;99.90;;;;;;5035921;28;20358;-67
2022/10/20 02:39:08;;;;;;;17.27;11.50;;;8.00;99.90;;;;;;5035862;28;20187;-67
2022/10/20 02:41:34;;;;;;;16.33;10.57;;;8.10;99.90;;;;;;5034492;28;20190;-67
2022/10/20 02:44:00;;;;;;;15.23;11.27;;;8.10;99.90;;;;;;5035585;28;20278;-66
2022/10/20 02:46:26;;;;;;;15.87;10.93;;;8.20;99.90;;;;;;5034953;28;20270;-67
2022/10/20 02:48:52;;;;;;;17.23;11.97;;;8.20;99.90;;;;;;5035696;28;20184;-67
2022/10/20 02:51:18;;;;;;;16.87;11.07;;;8.20;99.90;;;;;;5035565;28;20184;-66
2022/10/20 02:53:44;;;;;;;18.20;11.73;;;8.20;99.90;;;;;;5035459;28;20222;-67
2022/10/20 02:56:10;;;;;;;15.67;10.80;;;8.20;99.90;;;;;;5035855;28;20191;-67
2022/10/20 02:58:36;;;;;;;14.60;11.23;;;8.20;99.90;;;;;;5034090;28;20203;-67
2022/10/20 03:01:02;;;;;;;13.53;10.50;;;8.20;99.90;;;;;;5035672;28;20262;-62
2022/10/20 03:03:28;;;;;;;15.93;10.67;;;8.20;99.90;;;;;;5035223;28;20274;-61
2022/10/20 03:05:54;;;;;;;15.17;11.57;;;8.20;99.90;;;;;;5035351;28;20262;-61
2022/10/20 03:08:20;;;;;;;17.37;11.40;;;8.20;99.90;;;;;;5034812;28;20182;-62
2022/10/20 03:10:46;;;;;;;19.67;11.07;;;8.20;99.90;;;;;;5033882;28;20179;-62
2022/10/20 03:13:13;;;;;;;13.63;10.20;;;8.20;99.90;;;;;;5035094;28;20565;-62
2022/10/20 03:15:39;;;;;;;15.10;11.07;;;8.30;99.90;;;;;;5035088;28;20660;-62
2022/10/20 03:18:04;;;;;;;17.50;10.97;;;8.30;99.90;;;;;;5034921;28;20286;-61
2022/10/20 03:20:32;;;;;;;11.30;9.53;;;8.40;99.90;;;;;;5034976;28;20577;-62
2022/10/20 03:22:57;;;;;;;16.20;11.03;;;8.50;99.90;;;;;;5034927;28;20294;-62
2022/10/20 03:25:23;;;;;;;15.03;10.33;;;8.50;99.90;;;;;;5034887;28;20668;-62
2022/10/20 03:27:49;;;;;;;11.47;9.63;;;8.60;99.90;;;;;;5035101;28;20191;-62
2022/10/20 03:30:15;;;;;;;13.43;9.83;;;8.70;99.90;;;;;;5033633;28;20213;-63
2022/10/20 03:32:40;;;;;;;14.60;10.50;;;8.70;99.90;;;;;;5035110;28;20205;-62
2022/10/20 03:35:07;;;;;;;16.10;10.43;;;8.70;99.90;;;;;;5034822;28;20256;-63
2022/10/20 03:37:32;;;;;;;12.73;9.07;;;8.70;99.90;;;;;;5034897;28;20185;-62
2022/10/20 03:39:58;;;;;;;14.23;10.03;;;8.70;99.90;;;;;;5034427;28;20278;-62
2022/10/20 03:42:24;;;;;;;14.97;10.13;;;8.70;99.90;;;;;;5033277;28;20179;-62
2022/10/20 03:44:49;;;;;;;14.13;10.37;;;8.70;99.90;;;;;;5034412;28;20241;-62
2022/10/20 03:47:15;;;;;;;14.50;10.47;;;8.70;99.90;;;;;;5034374;28;20648;-61
2022/10/20 03:49:41;;;;;;;15.27;9.73;;;8.70;99.90;;;;;;5034836;28;20203;-62
2022/10/20 03:52:07;;;;;;;13.50;10.40;;;8.70;99.90;;;;;;5034356;28;20640;-62
2022/10/20 03:54:34;;;;;;;16.97;10.43;;;8.70;99.90;;;;;;5034317;28;20210;-62
2022/10/20 03:57:00;;;;;;;13.70;9.20;;;8.70;99.90;;;;;;5034306;28;20183;-62
2022/10/20 03:59:26;;;;;;;10.97;9.00;;;8.70;99.90;;;;;;5034246;28;20195;-62
2022/10/20 04:01:53;;;;;;;12.57;10.10;;;8.70;99.90;;;;;;5034236;28;20577;-62
2022/10/20 04:04:19;;;;;;;13.27;9.70;;;8.70;99.90;;;;;;5034119;28;20202;-62
2022/10/20 04:06:45;;;;;;;11.47;9.30;;;8.70;99.90;;;;;;5034661;28;20186;-62
2022/10/20 04:09:10;;;;;;;13.33;9.60;;;8.70;99.90;;;;;;5034213;28;20171;-62
2022/10/20 04:11:36;;;;;;;12.47;9.40;;;8.70;99.90;;;;;;5034103;28;20702;-62
2022/10/20 04:14:02;;;;;;;12.37;9.33;;;8.70;99.90;;;;;;5033794;28;20191;-63
2022/10/20 04:16:28;;;;;;;12.80;9.87;;;8.70;99.90;;;;;;5034161;28;20183;-61
2022/10/20 04:18:54;;;;;;;11.83;8.87;;;8.60;99.90;;;;;;5033076;28;20203;-61
2022/10/20 04:21:21;;;;;;;15.17;9.33;;;8.60;99.90;;;;;;5034049;28;20208;-62
2022/10/20 04:23:47;;;;;;;11.37;8.97;;;8.60;99.90;;;;;;5033697;28;20533;-62
2022/10/20 04:26:15;;;;;;;15.60;9.70;;;8.60;99.90;;;;;;5033792;28;20171;-61
2022/10/20 04:28:41;;;;;;;12.97;9.40;;;8.60;99.90;;;;;;5033547;28;20195;-61
2022/10/20 04:31:08;;;;;;;15.83;9.10;;;8.60;99.90;;;;;;5033809;28;20546;-62
2022/10/20 04:33:34;;;;;;;11.43;8.83;;;8.60;99.90;;;;;;5032335;28;20210;-62
2022/10/20 04:36:03;;;;;;;11.50;9.13;;;8.60;99.90;;;;;;5034218;28;20248;-61
2022/10/20 04:38:30;;;;;;;11.73;8.47;;;8.70;99.90;;;;;;5033824;28;20540;-62
2022/10/20 04:40:57;;;;;;;11.83;8.80;;;8.70;99.90;;;;;;5033430;28;20175;-62
2022/10/20 04:43:22;;;;;;;13.93;8.73;;;8.70;99.90;;;;;;5032242;28;20206;-62
2022/10/20 04:45:48;;;;;;;11.97;8.40;;;8.80;99.90;;;;;;5033824;28;20171;-62
2022/10/20 04:48:15;;;;;;;10.67;8.50;;;8.80;99.90;;;;;;5033451;28;20554;-62
2022/10/20 04:50:41;;;;;;;14.17;9.17;;;8.80;99.90;;;;;;5033499;28;20199;-63
2022/10/20 04:53:08;;;;;;;11.67;8.60;;;8.80;99.90;;;;;;5033303;28;20328;-63
2022/10/20 04:55:33;;;;;;;11.77;8.93;;;8.90;99.90;;;;;;5033362;28;20178;-63
2022/10/20 04:57:59;;;;;;;9.47;8.03;;;8.90;99.90;;;;;;5033377;28;20237;-63
2022/10/20 05:00:25;;;;;;;9.50;8.30;;;8.80;99.90;;;;;;5033901;28;20194;-63
2022/10/20 05:02:51;;;;;;;9.17;7.57;;;8.90;99.90;;;;;;5033209;28;20186;-63
2022/10/20 05:05:17;;;;;;;11.13;8.00;;;8.90;99.90;;;;;;5033349;28;20179;-63
2022/10/20 05:07:43;;;;;;;9.33;7.90;;;8.90;99.90;;;;;;5031912;28;20225;-62
2022/10/20 05:10:08;;;;;;;11.53;8.87;;;9.00;99.90;;;;;;5033177;28;20699;-63
2022/10/20 05:12:34;;;;;;;13.40;8.77;;;9.00;99.90;;;;;;5033610;28;20198;-63
2022/10/20 05:15:00;;;;;;;11.83;8.53;;;9.10;99.90;;;;;;5033029;28;20253;-63
2022/10/20 05:17:29;;;;;;;10.00;7.53;;;9.20;99.90;;;;;;5033343;28;20604;-63
2022/10/20 05:19:54;;;;;;;9.50;7.27;;;9.20;99.90;;;;;;5033279;28;20284;-63
2022/10/20 05:22:20;;;;;;;12.73;7.60;;;9.30;99.90;;;;;;5033082;28;20662;-63
2022/10/20 05:24:46;;;;;;;12.63;7.70;;;9.30;99.90;;;;;;5032852;28;20199;-63
2022/10/20 05:27:11;;;;;;;10.63;8.00;;;9.30;99.90;;;;;;5032895;28;20182;-63
2022/10/20 05:29:37;;;;;;;10.30;7.37;;;9.30;99.90;;;;;;5033435;28;20199;-63
2022/10/20 05:32:03;;;;;;;9.43;7.80;;;9.40;99.90;;;;;;5035421;28;20190;-62
2022/10/20 05:34:29;;;;;;;11.73;7.30;;;9.40;99.90;;;;;;5035601;28;20276;-63
2022/10/20 05:36:55;;;;;;;12.60;9.00;;;9.50;99.90;;;;;;5037119;28;20176;-62
2022/10/20 05:39:21;;;;;;;9.33;7.37;;;9.50;99.90;;;;;;5036866;28;20191;-62
2022/10/20 05:41:46;;;;;;;10.37;7.63;;;9.50;99.90;;;;;;5037306;28;20218;-62
2022/10/20 05:44:12;;;;;;;9.30;8.20;;;9.60;99.90;;;;;;5036742;28;20203;-62
2022/10/20 05:46:40;;;;;;;11.13;7.70;;;9.60;99.90;;;;;;5036685;28;20645;-62
2022/10/20 05:49:09;;;;;;;9.27;7.67;;;9.60;99.90;;;;;;5036620;28;20176;-62
2022/10/20 05:51:35;;;;;;;10.97;7.90;;;9.70;99.90;;;;;;5036893;28;20175;-62
2022/10/20 05:54:01;;;;;;;10.93;8.23;;;9.70;99.90;;;;;;5035048;28;20703;-62
2022/10/20 05:56:29;;;;;;;9.40;7.37;;;9.70;99.90;;;;;;5035511;28;20516;-62
2022/10/20 05:58:56;;;;;;;8.33;7.10;;;9.80;99.90;;;;;;5036465;28;20257;-62
2022/10/20 06:01:25;;;;;;;8.93;7.17;;;9.80;99.90;;;;;;5035134;28;20595;-62
2022/10/20 06:03:59;;;;;;;10.53;8.03;;;9.80;99.90;;;;;;5035080;28;20210;-62
2022/10/20 06:06:27;;;;;;;8.27;6.80;;;9.80;99.90;;;;;;5036531;28;20179;-62
2022/10/20 06:08:54;;;;;;;9.43;7.33;;;9.80;99.90;;;;;;5036070;28;20636;-62
2022/10/20 06:11:21;;;;;;;9.67;7.53;;;9.70;99.90;;;;;;5036488;28;20427;-62
2022/10/20 06:13:47;;;;;;;8.87;7.77;;;9.70;99.90;;;;;;5036025;28;20191;-62
2022/10/20 06:16:15;;;;;;;13.40;9.50;;;9.70;99.90;;;;;;5036637;28;20662;-62
2022/10/20 06:18:44;;;;;;;17.97;13.20;;;9.70;99.90;;;;;;5036004;28;20231;-62
2022/10/20 06:21:14;;;;;;;16.17;12.57;;;9.70;99.90;;;;;;5034887;28;20187;-62
2022/10/20 06:23:40;;;;;;;12.47;9.30;;;9.70;99.90;;;;;;5035166;28;20203;-62
2022/10/20 06:26:09;;;;;;;11.37;8.77;;;9.80;99.90;;;;;;5034681;28;20233;-62
2022/10/20 06:28:36;;;;;;;9.50;7.93;;;9.80;99.90;;;;;;5036225;28;20201;-62
2022/10/20 06:31:17;;;;;;;9.33;7.83;;;9.90;99.90;;;;;;5035981;28;20526;-62
2022/10/20 06:33:44;;;;;;;13.27;7.10;;;9.90;99.90;;;;;;5036290;28;20249;-62
2022/10/20 06:36:10;;;;;;;10.40;7.63;;;9.90;99.90;;;;;;5036848;28;20192;-62
2022/10/20 06:38:37;;;;;;;10.33;8.67;;;10.00;99.90;;;;;;5036491;28;20290;-62
2022/10/20 06:41:05;;;;;;;11.97;8.80;;;10.00;99.90;;;;;;5035780;28;20206;-62
2022/10/20 06:43:30;;;;;;;14.63;10.63;;;10.00;99.90;;;;;;5035035;28;20678;-62
2022/10/20 06:46:01;;;;;;;16.63;11.83;;;10.10;99.90;;;;;;5034406;28;20182;-62
2022/10/20 06:48:27;;;;;;;14.27;10.97;;;10.30;99.90;;;;;;5035595;28;20175;-62
2022/10/20 06:51:05;;;;;;;14.27;11.47;;;10.30;99.90;;;;;;5034349;28;20176;-62
2022/10/20 06:53:31;;;;;;;13.87;10.93;;;10.30;99.90;;;;;;5035676;28;20207;-62
2022/10/20 06:56:03;;;;;;;16.80;9.47;;;10.40;99.90;;;;;;5035319;28;20175;-62
2022/10/20 06:58:29;;;;;;;10.60;8.10;;;10.50;99.90;;;;;;5035180;28;20518;-62
2022/10/20 07:01:04;;;;;;;13.37;8.53;;;10.60;99.90;;;;;;5035763;28;20548;-62
2022/10/20 07:03:31;;;;;;;9.50;8.03;;;10.80;99.90;;;;;;5034623;28;20199;-62
2022/10/20 07:05:57;;;;;;;11.10;8.20;;;10.90;99.90;;;;;;5034618;28;20183;-62
2022/10/20 07:08:25;;;;;;;12.73;8.67;;;11.00;99.90;;;;;;5035790;28;20184;-62
2022/10/20 07:11:09;;;;;;;25.43;16.87;;;11.10;99.90;;;;;;5035093;28;20156;-62
2022/10/20 07:13:36;;;;;;;32.28;19.80;;;11.20;99.90;;;;;;5035035;28;20195;-62
2022/10/20 07:16:03;;;;;;;27.87;15.83;;;11.30;99.90;;;;;;5035091;28;20588;-62
2022/10/20 07:18:30;;;;;;;21.73;13.50;;;11.30;99.90;;;;;;5034936;28;20199;-62
2022/10/20 07:21:01;;;;;;;15.57;11.57;;;11.30;99.90;;;;;;5035503;28;20171;-62
2022/10/20 07:23:28;;;;;;;16.52;11.43;;;11.40;99.90;;;;;;5035197;28;20190;-62
2022/10/20 07:26:24;;;;;;;12.68;9.07;;;11.40;99.90;;;;;;5034743;28;20533;-62
2022/10/20 07:28:53;;;;;;;10.85;8.13;;;11.40;99.90;;;;;;5033985;28;20304;-62
2022/10/20 07:31:22;;;;;;;11.47;8.40;;;11.50;99.90;;;;;;5035274;28;20190;-62
2022/10/20 07:33:49;;;;;;;11.38;8.68;;;11.60;99.90;;;;;;5034692;28;20199;-62
2022/10/20 07:36:17;;;;;;;13.77;8.05;;;11.70;99.90;;;;;;5035285;28;20206;-63
2022/10/20 07:38:43;;;;;;;12.82;8.00;;;11.90;99.90;;;;;;5034542;28;20280;-63
2022/10/20 07:41:10;;;;;;;9.45;7.15;;;12.00;99.90;;;;;;5034470;28;20183;-63
2022/10/20 07:43:37;;;;;;;8.32;7.40;;;12.10;99.90;;;;;;5033138;28;20195;-63
2022/10/20 07:46:04;;;;;;;9.02;7.03;;;12.20;99.90;;;;;;5034493;28;20691;-63
2022/10/20 07:48:32;;;;;;;8.88;7.18;;;12.20;99.90;;;;;;5034395;28;20185;-63
2022/10/20 07:51:18;;;;;;;7.85;6.72;;;12.30;99.90;;;;;;5033117;28;20528;-62
2022/10/20 07:53:44;;;;;;;9.65;7.32;;;12.40;99.90;;;;;;5034758;28;20281;-62
2022/10/20 07:56:10;;;;;;;8.90;7.53;;;12.40;99.90;;;;;;5034112;28;20183;-62
2022/10/20 07:58:36;;;;;;;10.68;7.90;;;12.40;99.90;;;;;;5034188;28;20667;-62
2022/10/20 08:01:03;;;;;;;10.48;7.18;;;12.50;99.90;;;;;;5034738;28;20237;-62
2022/10/20 08:03:29;;;;;;;12.75;7.00;;;12.60;99.90;;;;;;5034208;28;20588;-62
2022/10/20 08:05:54;;;;;;;7.82;6.90;;;12.70;99.90;;;;;;5034058;28;20174;-63
2022/10/20 08:08:20;;;;;;;7.93;6.75;;;12.70;99.90;;;;;;5034555;28;20179;-62
2022/10/20 08:10:46;;;;;;;8.65;7.00;;;12.80;99.90;;;;;;5033855;28;20649;-63
2022/10/20 08:13:12;;;;;;;8.80;6.85;;;12.90;99.90;;;;;;5033854;28;20219;-63
2022/10/20 08:15:37;;;;;;;12.38;7.20;;;13.00;99.90;;;;;;5034040;28;20254;-62
2022/10/20 08:18:03;;;;;;;10.10;6.60;;;13.10;99.90;;;;;;5033876;28;20239;-62
2022/10/20 08:20:29;;;;;;;8.40;6.55;;;13.40;99.90;;;;;;5034121;28;20199;-63
2022/10/20 08:22:55;;;;;;;8.15;6.88;;;13.50;99.90;;;;;;5033973;28;20213;-62
2022/10/20 08:25:21;;;;;;;9.25;7.35;;;13.70;99.90;;;;;;5033660;28;20171;-62
2022/10/20 08:27:46;;;;;;;7.68;6.50;;;13.90;99.90;;;;;;5033681;28;20603;-63
2022/10/20 08:30:12;;;;;;;8.57;6.55;;;14.10;99.90;;;;;;5033966;28;20167;-62
2022/10/20 08:32:38;;;;;;;12.68;6.68;;;14.30;99.90;;;;;;5033901;28;20179;-63
2022/10/20 08:35:04;;;;;;;8.50;6.53;;;14.30;99.90;;;;;;5034213;28;20175;-62
2022/10/20 08:37:30;;;;;;;7.65;6.47;;;14.30;99.90;;;;;;5033586;28;20191;-62
2022/10/20 08:39:56;;;;;;;8.73;6.20;;;14.30;99.90;;;;;;5033518;28;20198;-62
2022/10/20 08:42:23;;;;;;;7.95;6.13;;;14.30;99.90;;;;;;5033559;28;20170;-62
2022/10/20 08:44:49;;;;;;;9.15;5.88;;;14.30;99.90;;;;;;5033774;28;20556;-62
2022/10/20 08:47:24;;;;;;;7.63;5.97;;;14.30;99.90;;;;;;5032180;28;20182;-63
2022/10/20 08:49:50;;;;;;;7.75;6.10;;;14.40;99.90;;;;;;5033536;28;20269;-62
2022/10/20 08:52:17;;;;;;;9.77;7.07;;;14.50;99.90;;;;;;5033467;28;20191;-62
2022/10/20 08:54:42;;;;;;;9.55;6.65;;;14.40;99.90;;;;;;5033218;28;20199;-62
2022/10/20 08:57:20;;;;;;;10.07;5.75;;;14.50;99.90;;;;;;5033433;28;20175;-62
2022/10/20 08:59:45;;;;;;;7.65;6.32;;;14.50;99.90;;;;;;5033685;28;20197;-62
2022/10/20 09:02:15;;;;;;;6.97;5.72;;;14.50;99.90;;;;;;5032020;28;20175;-63
2022/10/20 09:04:54;;;;;;;8.25;6.00;;;14.50;99.90;;;;;;5033703;28;20678;-62
2022/10/20 09:07:36;;;;;;;6.57;5.80;;;14.60;99.90;;;;;;5038771;28;20191;-63
2022/10/20 09:10:23;;;;;;;9.23;6.28;;;14.60;99.90;;;;;;5040035;28;20159;-63
2022/10/20 09:12:50;;;;;;;9.48;6.32;;;14.60;99.90;;;;;;5039840;28;20174;-63
2022/10/20 09:15:18;;;;;;;8.68;6.28;;;14.60;99.90;;;;;;5039756;28;20265;-63
2022/10/20 09:17:52;;;;;;;9.00;6.30;;;14.60;99.90;;;;;;5038445;28;20178;-63
2022/10/20 09:20:47;;;;;;;9.80;6.00;;;14.60;99.90;;;;;;5039853;28;20763;-63
2022/10/20 09:23:18;;;;;;;11.75;7.03;;;14.60;99.90;;;;;;5039205;28;20202;-63
2022/10/20 09:25:44;;;;;;;7.80;5.97;;;14.70;99.90;;;;;;5039821;28;20171;-63
2022/10/20 09:28:23;;;;;;;9.70;6.97;;;14.60;99.90;;;;;;5039835;28;20191;-63
2022/10/20 09:30:49;;;;;;;10.77;6.60;;;14.60;99.90;;;;;;5040234;28;20169;-63
2022/10/20 09:33:25;;;;;;;9.90;6.30;;;14.70;99.90;;;;;;5039566;28;20230;-63
2022/10/20 09:35:51;;;;;;;9.95;6.32;;;14.60;99.90;;;;;;5039619;28;20179;-63
2022/10/20 09:38:28;;;;;;;9.55;6.95;;;14.60;99.90;;;;;;5040206;28;20221;-62
2022/10/20 09:41:05;;;;;;;10.13;6.85;;;14.60;99.90;;;;;;5038759;28;20633;-63
2022/10/20 09:43:31;;;;;;;10.20;6.43;;;14.60;99.90;;;;;;5038218;28;20226;-63
2022/10/20 09:46:05;;;;;;;11.30;6.90;;;14.60;99.90;;;;;;5039545;28;20175;-63
2022/10/20 09:48:35;;;;;;;10.50;6.45;;;14.70;99.90;;;;;;5039684;28;20167;-62
2022/10/20 09:51:03;;;;;;;14.35;7.35;;;14.70;99.90;;;;;;5038255;28;20237;-63
2022/10/20 09:53:33;;;;;;;12.00;7.50;;;14.70;99.90;;;;;;5039689;28;20191;-63
2022/10/20 09:55:59;;;;;;;11.23;7.00;;;14.80;99.90;;;;;;5039379;28;20183;-62
2022/10/20 09:58:31;;;;;;;19.27;6.88;;;14.80;99.90;;;;;;5039348;28;20186;-63
2022/10/20 10:01:04;;;;;;;14.65;6.85;;;14.80;99.90;;;;;;5039365;28;20306;-63
2022/10/20 10:03:45;;;;;;;11.27;7.32;;;14.80;99.90;;;;;;5039539;28;20656;-63
2022/10/20 10:06:19;;;;;;;10.48;6.70;;;14.80;99.90;;;;;;5039647;28;20523;-62
2022/10/20 10:08:46;;;;;;;15.45;7.18;;;14.80;99.90;;;;;;5039438;28;20181;-62
2022/10/20 10:11:20;;;;;;;10.57;6.88;;;14.80;99.90;;;;;;5039190;28;20175;-62
2022/10/20 10:13:48;;;;;;;15.13;7.68;;;14.80;99.90;;;;;;5038010;28;20682;-63
2022/10/20 10:16:18;;;;;;;11.68;7.13;;;14.80;99.90;;;;;;5037505;28;20179;-62
2022/10/20 10:18:52;;;;;;;10.27;6.97;;;14.90;99.90;;;;;;5033837;28;20310;-62
2022/10/20 10:21:19;;;;;;;11.25;6.78;;;14.90;99.90;;;;;;5036727;28;20155;-62
2022/10/20 10:23:59;;;;;;;10.90;6.78;;;14.90;99.90;;;;;;5034711;28;20191;-63
2022/10/20 10:26:44;;;;;;;13.70;7.97;;;14.90;99.90;;;;;;5036090;28;20290;-63
2022/10/20 10:29:39;;;;;;;9.27;6.97;;;14.90;99.90;;;;;;5035805;28;20197;-62
2022/10/20 10:32:21;;;;;;;9.15;6.53;;;14.90;99.90;;;;;;5022014;28;20238;-62
2022/10/20 10:35:08;;;;;;;13.30;7.40;;;15.00;99.90;;;;;;5035913;28;20199;-62
2022/10/20 10:37:37;;;;;;;10.10;7.97;;;14.90;99.90;;;;;;5034528;28;20175;-63
2022/10/20 10:40:30;;;;;;;9.27;6.93;;;14.90;99.90;;;;;;5035714;28;20221;-63
2022/10/20 10:43:48;;;;;;;14.23;6.90;;;14.90;99.90;;;;;;5035793;28;20237;-63
2022/10/20 10:46:19;;;;;;;15.25;7.63;;;14.90;99.90;;;;;;4978098;28;20195;-63
2022/10/20 10:49:06;;;;;;;11.90;6.63;;;14.80;99.90;;;;;;5028869;28;20558;-62
2022/10/20 10:52:06;;;;;;;12.73;7.22;;;14.80;99.90;;;;;;5035657;28;20160;-62
2022/10/20 10:54:55;;;;;;;9.73;6.65;;;14.90;99.90;;;;;;5035939;28;20289;-63
2022/10/20 10:57:30;;;;;;;10.77;6.70;;;14.90;99.90;;;;;;5034344;28;20636;-62
2022/10/20 10:59:59;;;;;;;10.65;6.68;;;15.00;99.90;;;;;;5035755;28;20341;-62
2022/10/20 11:02:46;;;;;;;11.30;6.53;;;15.10;99.90;;;;;;5035391;28;20171;-62
2022/10/20 11:05:50;;;;;;;11.32;6.90;;;15.10;99.90;;;;;;5035585;28;20167;-62
2022/10/20 11:08:24;;;;;;;14.85;6.70;;;15.20;99.90;;;;;;5033196;28;20270;-62
2022/10/20 11:11:09;;;;;;;9.63;6.80;;;15.20;99.90;;;;;;5035119;28;20187;-62
2022/10/20 11:13:42;;;;;;;14.60;7.75;;;15.10;99.90;;;;;;5035182;28;20199;-63
2022/10/20 11:16:29;;;;;;;14.93;6.32;;;15.20;99.90;;;;;;5035771;28;20246;-62
2022/10/20 11:19:07;;;;;;;12.82;6.88;;;15.20;99.90;;;;;;5033668;28;20219;-62
2022/10/20 11:21:56;;;;;;;11.60;6.28;;;15.20;99.90;;;;;;5035088;28;20242;-62
2022/10/20 11:24:46;;;;;;;11.93;6.68;;;15.20;99.90;;;;;;5033693;28;20195;-62
2022/10/20 11:27:19;;;;;;;12.32;6.47;;;15.20;99.90;;;;;;5035060;28;20178;-63
2022/10/20 11:29:50;;;;;;;16.00;6.65;;;15.20;99.90;;;;;;5034570;28;20218;-62
2022/10/20 11:32:34;;;;;;;13.75;6.80;;;15.30;99.90;;;;;;5035336;28;20237;-62
2022/10/20 11:35:18;;;;;;;12.88;6.82;;;15.30;99.90;;;;;;5035093;28;20171;-62
2022/10/20 11:38:12;;;;;;;12.88;6.90;;;15.30;99.90;;;;;;5034949;28;20163;-63
2022/10/20 11:40:42;;;;;;;14.05;7.97;;;15.40;99.90;;;;;;5034576;28;20205;-62
2022/10/20 11:43:24;;;;;;;14.20;6.72;;;15.40;99.90;;;;;;5034809;28;20241;-62
2022/10/20 11:46:02;;;;;;;10.27;6.93;;;15.40;99.90;;;;;;5034780;28;20529;-62
2022/10/20 11:48:40;;;;;;;12.60;7.40;;;15.30;99.90;;;;;;5033181;28;20233;-62
2022/10/20 11:51:31;;;;;;;10.07;6.85;;;15.20;99.90;;;;;;5034475;28;20155;-63
2022/10/20 11:54:34;;;;;;;11.90;6.82;;;15.20;99.90;;;;;;5034397;28;20206;-63
2022/10/20 11:57:30;;;;;;;10.40;7.32;;;15.10;99.90;;;;;;5034425;28;20220;-63
2022/10/20 12:00:07;;;;;;;12.38;7.88;;;15.10;99.90;;;;;;5034300;28;20195;-63
2022/10/20 12:02:33;;;;;;;14.57;7.30;;;15.00;99.90;;;;;;5034291;28;20166;-62
2022/10/20 12:05:17;;;;;;;10.35;6.72;;;15.00;99.90;;;;;;5034178;28;20195;-63
2022/10/20 12:07:54;;;;;;;11.25;7.28;;;15.10;99.90;;;;;;5034242;28;20159;-62
2022/10/20 12:10:41;;;;;;;10.15;7.30;;;15.10;99.90;;;;;;5033919;28;20179;-63
2022/10/20 12:13:31;;;;;;;10.10;7.32;;;15.10;99.90;;;;;;5033011;28;20607;-63
2022/10/20 12:15:56;;;;;;;10.38;7.88;;;15.10;99.90;;;;;;5034287;28;20617;-62
2022/10/20 12:18:34;;;;;;;10.63;7.57;;;15.10;99.90;;;;;;5034071;28;20181;-63
2022/10/20 12:21:05;;;;;;;10.52;6.95;;;15.10;99.90;;;;;;5034280;28;20166;-63
2022/10/20 12:23:44;;;;;;;10.18;6.88;;;15.10;99.90;;;;;;5032813;28;20555;-63
2022/10/20 12:26:28;;;;;;;10.30;6.85;;;15.10;99.90;;;;;;5033651;28;20659;-63
2022/10/20 12:28:55;;;;;;;9.95;7.25;;;15.10;99.90;;;;;;5032383;28;20202;-63
2022/10/20 12:31:21;;;;;;;9.60;7.25;;;15.10;99.90;;;;;;5033854;28;20670;-63
2022/10/20 12:33:52;;;;;;;10.68;7.32;;;15.10;99.90;;;;;;5033839;28;20549;-63
2022/10/20 12:36:18;;;;;;;13.40;8.18;;;15.10;99.90;;;;;;5032431;28;20179;-63
2022/10/20 12:38:49;;;;;;;14.60;8.82;;;15.10;99.90;;;;;;5033672;28;20182;-63
2022/10/20 12:41:53;;;;;;;12.23;8.90;;;15.10;99.90;;;;;;5032869;28;20163;-63
2022/10/20 12:44:21;;;;;;;14.52;8.68;;;15.20;99.90;;;;;;5033355;28;20191;-63
2022/10/20 12:46:56;;;;;;;11.02;7.78;;;15.30;99.90;;;;;;5033601;28;20171;-62
2022/10/20 12:49:28;;;;;;;13.15;8.55;;;15.20;99.90;;;;;;5033692;28;20190;-63
2022/10/20 12:51:56;;;;;;;17.55;9.07;;;15.20;99.90;;;;;;5033767;28;20198;-63
2022/10/20 12:54:30;;;;;;;8.95;7.07;;;15.20;99.90;;;;;;5033391;28;20608;-62
2022/10/20 12:57:00;;;;;;;10.75;7.38;;;15.10;99.90;;;;;;5032165;28;20178;-62
2022/10/20 12:59:29;;;;;;;14.43;8.07;;;15.10;99.90;;;;;;5031985;28;20215;-63
2022/10/20 13:02:09;;;;;;;16.23;8.85;;;15.00;99.90;;;;;;5033330;28;20225;-62
2022/10/20 13:05:05;;;;;;;11.20;8.27;;;15.00;99.90;;;;;;5033266;28;20236;-63